sensor_id;sensor_type;location;lat;lon;timestamp;P1;durP1;ratioP1;P2;durP2;ratioP2
36923;SDS011;22841;50.252;18.688;2023-12-20T02:53:39;17.23;;;9.75;;
36923;SDS011;22841;50.252;18.688;2023-12-20T02:56:05;17.45;;;9.27;;
36923;SDS011;22841;50.252;18.688;2023-12-20T02:58:31;15.80;;;9.30;;
36923;SDS011;22841;50.252;18.688;2023-12-20T03:00:57;14.90;;;9.75;;
36923;SDS011;22841;50.252;18.688;2023-12-20T03:03:23;18.90;;;11.25;;
36923;SDS011;22841;50.252;18.688;2023-12-20T03:05:49;19.20;;;11.50;;
36923;SDS011;22841;50.252;18.688;2023-12-20T03:08:16;21.60;;;11.63;;
36923;SDS011;22841;50.252;18.688;2023-12-20T03:10:42;19.05;;;11.68;;
36923;SDS011;22841;50.252;18.688;2023-12-20T03:13:08;25.60;;;11.50;;
36923;SDS011;22841;50.252;18.688;2023-12-20T03:15:34;20.48;;;11.80;;
36923;SDS011;22841;50.252;18.688;2023-12-20T03:18:00;22.30;;;13.27;;
36923;SDS011;22841;50.252;18.688;2023-12-20T03:20:27;24.13;;;13.30;;
36923;SDS011;22841;50.252;18.688;2023-12-20T03:22:53;20.80;;;13.15;;
36923;SDS011;22841;50.252;18.688;2023-12-20T03:25:19;23.15;;;14.10;;
36923;SDS011;22841;50.252;18.688;2023-12-20T03:27:45;19.45;;;12.35;;
36923;SDS011;22841;50.252;18.688;2023-12-20T03:30:11;25.80;;;14.43;;
36923;SDS011;22841;50.252;18.688;2023-12-20T03:32:38;25.30;;;13.02;;
36923;SDS011;22841;50.252;18.688;2023-12-20T03:35:04;28.65;;;15.25;;
36923;SDS011;22841;50.252;18.688;2023-12-20T03:37:31;20.65;;;13.48;;
36923;SDS011;22841;50.252;18.688;2023-12-20T03:39:58;23.13;;;13.68;;
36923;SDS011;22841;50.252;18.688;2023-12-20T03:42:24;24.17;;;14.07;;
36923;SDS011;22841;50.252;18.688;2023-12-20T03:44:52;19.27;;;13.00;;
36923;SDS011;22841;50.252;18.688;2023-12-20T03:47:18;22.10;;;12.95;;
36923;SDS011;22841;50.252;18.688;2023-12-20T03:49:45;25.08;;;14.43;;
36923;SDS011;22841;50.252;18.688;2023-12-20T03:52:12;21.05;;;12.43;;
36923;SDS011;22841;50.252;18.688;2023-12-20T03:54:38;23.23;;;13.65;;
36923;SDS011;22841;50.252;18.688;2023-12-20T03:57:04;23.80;;;14.38;;
36923;SDS011;22841;50.252;18.688;2023-12-20T03:59:34;27.05;;;15.43;;
36923;SDS011;22841;50.252;18.688;2023-12-20T04:02:01;24.70;;;14.30;;
36923;SDS011;22841;50.252;18.688;2023-12-20T04:04:28;20.52;;;12.68;;
36923;SDS011;22841;50.252;18.688;2023-12-20T04:06:54;28.73;;;14.18;;
36923;SDS011;22841;50.252;18.688;2023-12-20T04:09:21;23.58;;;14.05;;
36923;SDS011;22841;50.252;18.688;2023-12-20T04:11:48;26.55;;;15.10;;
36923;SDS011;22841;50.252;18.688;2023-12-20T04:14:14;22.73;;;12.90;;
36923;SDS011;22841;50.252;18.688;2023-12-20T04:16:40;21.50;;;12.70;;
36923;SDS011;22841;50.252;18.688;2023-12-20T04:19:06;22.48;;;12.82;;
36923;SDS011;22841;50.252;18.688;2023-12-20T04:21:32;22.95;;;13.05;;
36923;SDS011;22841;50.252;18.688;2023-12-20T04:23:58;22.48;;;13.70;;
36923;SDS011;22841;50.252;18.688;2023-12-20T04:26:24;21.95;;;13.52;;
36923;SDS011;22841;50.252;18.688;2023-12-20T04:28:50;22.58;;;14.15;;
36923;SDS011;22841;50.252;18.688;2023-12-20T04:31:17;27.23;;;13.77;;
36923;SDS011;22841;50.252;18.688;2023-12-20T04:33:43;25.52;;;13.85;;
36923;SDS011;22841;50.252;18.688;2023-12-20T04:36:10;32.45;;;16.13;;
36923;SDS011;22841;50.252;18.688;2023-12-20T04:38:36;31.42;;;18.70;;
36923;SDS011;22841;50.252;18.688;2023-12-20T04:41:02;45.20;;;19.98;;
36923;SDS011;22841;50.252;18.688;2023-12-20T04:43:29;35.38;;;19.20;;
36923;SDS011;22841;50.252;18.688;2023-12-20T04:45:55;39.15;;;18.73;;
36923;SDS011;22841;50.252;18.688;2023-12-20T04:48:21;38.38;;;17.88;;
36923;SDS011;22841;50.252;18.688;2023-12-20T04:50:47;34.22;;;17.73;;
36923;SDS011;22841;50.252;18.688;2023-12-20T04:53:13;31.08;;;17.73;;
36923;SDS011;22841;50.252;18.688;2023-12-20T04:55:39;30.92;;;16.35;;
36923;SDS011;22841;50.252;18.688;2023-12-20T04:58:05;30.27;;;17.35;;
36923;SDS011;22841;50.252;18.688;2023-12-20T05:00:31;35.53;;;19.77;;
36923;SDS011;22841;50.252;18.688;2023-12-20T05:02:57;32.35;;;20.38;;
36923;SDS011;22841;50.252;18.688;2023-12-20T05:05:23;33.45;;;19.25;;
36923;SDS011;22841;50.252;18.688;2023-12-20T05:07:49;50.42;;;22.15;;
36923;SDS011;22841;50.252;18.688;2023-12-20T05:10:15;38.63;;;19.58;;
36923;SDS011;22841;50.252;18.688;2023-12-20T05:12:41;54.50;;;21.88;;
36923;SDS011;22841;50.252;18.688;2023-12-20T05:15:09;43.40;;;21.40;;
36923;SDS011;22841;50.252;18.688;2023-12-20T05:17:35;41.97;;;21.42;;
36923;SDS011;22841;50.252;18.688;2023-12-20T05:20:01;39.53;;;21.73;;
36923;SDS011;22841;50.252;18.688;2023-12-20T05:22:28;34.80;;;20.25;;
36923;SDS011;22841;50.252;18.688;2023-12-20T05:24:54;39.80;;;20.90;;
36923;SDS011;22841;50.252;18.688;2023-12-20T05:27:20;39.65;;;22.02;;
36923;SDS011;22841;50.252;18.688;2023-12-20T05:29:46;43.10;;;24.48;;
36923;SDS011;22841;50.252;18.688;2023-12-20T05:32:12;45.25;;;22.10;;
36923;SDS011;22841;50.252;18.688;2023-12-20T05:34:38;40.65;;;22.65;;
36923;SDS011;22841;50.252;18.688;2023-12-20T05:37:04;38.63;;;21.88;;
36923;SDS011;22841;50.252;18.688;2023-12-20T05:39:30;38.55;;;21.15;;
36923;SDS011;22841;50.252;18.688;2023-12-20T05:41:56;46.53;;;21.77;;
36923;SDS011;22841;50.252;18.688;2023-12-20T05:44:22;40.92;;;21.10;;
36923;SDS011;22841;50.252;18.688;2023-12-20T05:46:48;42.08;;;21.90;;
36923;SDS011;22841;50.252;18.688;2023-12-20T05:49:14;47.97;;;22.33;;
36923;SDS011;22841;50.252;18.688;2023-12-20T05:51:41;40.03;;;20.45;;
36923;SDS011;22841;50.252;18.688;2023-12-20T05:54:07;37.92;;;20.42;;
36923;SDS011;22841;50.252;18.688;2023-12-20T05:56:34;37.95;;;19.73;;
36923;SDS011;22841;50.252;18.688;2023-12-20T05:59:02;37.05;;;20.38;;
36923;SDS011;22841;50.252;18.688;2023-12-20T06:01:28;56.20;;;30.65;;
36923;SDS011;22841;50.252;18.688;2023-12-20T06:03:54;106.05;;;53.40;;
36923;SDS011;22841;50.252;18.688;2023-12-20T06:06:20;119.35;;;53.45;;
36923;SDS011;22841;50.252;18.688;2023-12-20T06:08:46;82.00;;;40.60;;
36923;SDS011;22841;50.252;18.688;2023-12-20T06:11:13;60.20;;;33.05;;
36923;SDS011;22841;50.252;18.688;2023-12-20T06:13:39;48.67;;;26.88;;
36923;SDS011;22841;50.252;18.688;2023-12-20T06:16:05;42.85;;;26.02;;
36923;SDS011;22841;50.252;18.688;2023-12-20T06:18:32;39.97;;;22.80;;
36923;SDS011;22841;50.252;18.688;2023-12-20T06:20:58;36.22;;;19.25;;
36923;SDS011;22841;50.252;18.688;2023-12-20T06:23:24;38.55;;;21.38;;
36923;SDS011;22841;50.252;18.688;2023-12-20T06:25:50;36.45;;;20.77;;
36923;SDS011;22841;50.252;18.688;2023-12-20T06:28:17;34.30;;;20.08;;
36923;SDS011;22841;50.252;18.688;2023-12-20T06:36:29;36.78;;;19.90;;
36923;SDS011;22841;50.252;18.688;2023-12-20T06:44:24;44.03;;;21.88;;
36923;SDS011;22841;50.252;18.688;2023-12-20T06:46:50;43.92;;;22.73;;
36923;SDS011;22841;50.252;18.688;2023-12-20T06:49:16;44.15;;;22.02;;
36923;SDS011;22841;50.252;18.688;2023-12-20T06:51:44;40.67;;;22.20;;
36923;SDS011;22841;50.252;18.688;2023-12-20T06:54:10;42.97;;;21.63;;
36923;SDS011;22841;50.252;18.688;2023-12-20T06:56:36;38.75;;;20.45;;
36923;SDS011;22841;50.252;18.688;2023-12-20T06:59:02;45.78;;;22.05;;
36923;SDS011;22841;50.252;18.688;2023-12-20T07:10:18;35.60;;;19.83;;
36923;SDS011;22841;50.252;18.688;2023-12-20T07:12:44;38.10;;;19.83;;
36923;SDS011;22841;50.252;18.688;2023-12-20T07:15:11;34.28;;;18.65;;
36923;SDS011;22841;50.252;18.688;2023-12-20T07:17:37;40.40;;;20.02;;
36923;SDS011;22841;50.252;18.688;2023-12-20T07:20:03;33.30;;;18.13;;
36923;SDS011;22841;50.252;18.688;2023-12-20T07:22:32;40.97;;;18.42;;
36923;SDS011;22841;50.252;18.688;2023-12-20T07:24:59;33.60;;;18.05;;
36923;SDS011;22841;50.252;18.688;2023-12-20T07:27:25;34.90;;;18.80;;
36923;SDS011;22841;50.252;18.688;2023-12-20T07:29:52;40.22;;;20.42;;
36923;SDS011;22841;50.252;18.688;2023-12-20T07:32:18;31.63;;;18.60;;
36923;SDS011;22841;50.252;18.688;2023-12-20T07:34:44;36.67;;;20.15;;
36923;SDS011;22841;50.252;18.688;2023-12-20T07:37:10;38.97;;;19.25;;
36923;SDS011;22841;50.252;18.688;2023-12-20T07:51:28;32.95;;;18.45;;
36923;SDS011;22841;50.252;18.688;2023-12-20T08:11:08;42.65;;;18.55;;
36923;SDS011;22841;50.252;18.688;2023-12-20T08:13:34;35.50;;;18.67;;
36923;SDS011;22841;50.252;18.688;2023-12-20T08:16:00;36.35;;;19.10;;
36923;SDS011;22841;50.252;18.688;2023-12-20T08:18:28;40.05;;;18.52;;
36923;SDS011;22841;50.252;18.688;2023-12-20T08:20:54;45.53;;;20.70;;
36923;SDS011;22841;50.252;18.688;2023-12-20T08:23:20;33.95;;;18.40;;
36923;SDS011;22841;50.252;18.688;2023-12-20T08:25:47;35.33;;;19.13;;
36923;SDS011;22841;50.252;18.688;2023-12-20T08:28:13;35.03;;;19.77;;
36923;SDS011;22841;50.252;18.688;2023-12-20T08:30:40;36.00;;;18.98;;
36923;SDS011;22841;50.252;18.688;2023-12-20T08:33:06;34.40;;;18.88;;
36923;SDS011;22841;50.252;18.688;2023-12-20T08:35:36;35.40;;;17.95;;
36923;SDS011;22841;50.252;18.688;2023-12-20T08:44:52;34.55;;;18.73;;
36923;SDS011;22841;50.252;18.688;2023-12-20T08:50:41;33.25;;;17.73;;
36923;SDS011;22841;50.252;18.688;2023-12-20T08:56:30;34.17;;;18.70;;
36923;SDS011;22841;50.252;18.688;2023-12-20T08:58:56;31.30;;;17.65;;
36923;SDS011;22841;50.252;18.688;2023-12-20T09:01:22;39.28;;;22.10;;
36923;SDS011;22841;50.252;18.688;2023-12-20T09:03:48;37.33;;;20.00;;
36923;SDS011;22841;50.252;18.688;2023-12-20T09:09:57;46.30;;;22.45;;
36923;SDS011;22841;50.252;18.688;2023-12-20T09:12:24;33.83;;;20.52;;
36923;SDS011;22841;50.252;18.688;2023-12-20T09:14:50;33.35;;;19.17;;
36923;SDS011;22841;50.252;18.688;2023-12-20T09:17:17;36.65;;;20.98;;
36923;SDS011;22841;50.252;18.688;2023-12-20T09:43:04;65.75;;;35.00;;
36923;SDS011;22841;50.252;18.688;2023-12-20T09:49:00;51.70;;;29.52;;
36923;SDS011;22841;50.252;18.688;2023-12-20T09:51:27;54.15;;;27.80;;
36923;SDS011;22841;50.252;18.688;2023-12-20T09:53:54;47.25;;;25.30;;
36923;SDS011;22841;50.252;18.688;2023-12-20T09:56:22;42.20;;;23.50;;
36923;SDS011;22841;50.252;18.688;2023-12-20T09:58:49;40.92;;;22.40;;
36923;SDS011;22841;50.252;18.688;2023-12-20T10:01:15;53.83;;;27.27;;
36923;SDS011;22841;50.252;18.688;2023-12-20T10:03:42;53.38;;;26.15;;
36923;SDS011;22841;50.252;18.688;2023-12-20T10:06:08;63.60;;;32.65;;
36923;SDS011;22841;50.252;18.688;2023-12-20T10:08:34;58.90;;;29.63;;
36923;SDS011;22841;50.252;18.688;2023-12-20T10:11:01;50.42;;;29.05;;
36923;SDS011;22841;50.252;18.688;2023-12-20T10:13:28;73.40;;;37.20;;
36923;SDS011;22841;50.252;18.688;2023-12-20T10:15:57;53.00;;;28.90;;
36923;SDS011;22841;50.252;18.688;2023-12-20T10:18:24;52.65;;;27.27;;
36923;SDS011;22841;50.252;18.688;2023-12-20T10:20:50;62.22;;;31.90;;
36923;SDS011;22841;50.252;18.688;2023-12-20T10:23:17;72.82;;;34.17;;
36923;SDS011;22841;50.252;18.688;2023-12-20T10:25:43;72.18;;;34.10;;
36923;SDS011;22841;50.252;18.688;2023-12-20T10:28:23;60.42;;;30.80;;
36923;SDS011;22841;50.252;18.688;2023-12-20T10:30:53;63.83;;;34.55;;
36923;SDS011;22841;50.252;18.688;2023-12-20T10:33:24;72.82;;;35.90;;
36923;SDS011;22841;50.252;18.688;2023-12-20T10:35:51;75.75;;;38.90;;
36923;SDS011;22841;50.252;18.688;2023-12-20T10:38:18;70.32;;;34.78;;
36923;SDS011;22841;50.252;18.688;2023-12-20T10:40:47;65.63;;;34.20;;
36923;SDS011;22841;50.252;18.688;2023-12-20T10:43:18;73.10;;;37.55;;
36923;SDS011;22841;50.252;18.688;2023-12-20T10:45:45;99.13;;;44.20;;
36923;SDS011;22841;50.252;18.688;2023-12-20T10:48:11;77.28;;;41.30;;
36923;SDS011;22841;50.252;18.688;2023-12-20T10:50:38;88.25;;;47.47;;
36923;SDS011;22841;50.252;18.688;2023-12-20T10:53:04;53.90;;;29.80;;
36923;SDS011;22841;50.252;18.688;2023-12-20T10:55:30;94.30;;;52.38;;
36923;SDS011;22841;50.252;18.688;2023-12-20T10:58:00;51.83;;;29.25;;
36923;SDS011;22841;50.252;18.688;2023-12-20T11:00:28;49.17;;;28.13;;
36923;SDS011;22841;50.252;18.688;2023-12-20T11:02:56;47.65;;;25.73;;
36923;SDS011;22841;50.252;18.688;2023-12-20T11:05:35;49.70;;;25.80;;
36923;SDS011;22841;50.252;18.688;2023-12-20T11:08:23;56.25;;;27.35;;
36923;SDS011;22841;50.252;18.688;2023-12-20T11:15:11;40.37;;;23.73;;
36923;SDS011;22841;50.252;18.688;2023-12-20T11:17:39;56.88;;;26.55;;
36923;SDS011;22841;50.252;18.688;2023-12-20T11:20:07;49.97;;;28.33;;
36923;SDS011;22841;50.252;18.688;2023-12-20T11:22:35;47.20;;;24.98;;
36923;SDS011;22841;50.252;18.688;2023-12-20T11:25:03;48.13;;;28.13;;
36923;SDS011;22841;50.252;18.688;2023-12-20T11:27:34;47.95;;;26.02;;
36923;SDS011;22841;50.252;18.688;2023-12-20T11:30:02;46.25;;;25.20;;
36923;SDS011;22841;50.252;18.688;2023-12-20T11:32:33;40.72;;;23.55;;
36923;SDS011;22841;50.252;18.688;2023-12-20T11:35:21;55.33;;;26.60;;
36923;SDS011;22841;50.252;18.688;2023-12-20T11:37:46;48.20;;;25.15;;
36923;SDS011;22841;50.252;18.688;2023-12-20T11:40:15;71.38;;;34.97;;
36923;SDS011;22841;50.252;18.688;2023-12-20T11:42:45;56.83;;;30.67;;
36923;SDS011;22841;50.252;18.688;2023-12-20T11:45:14;54.90;;;29.45;;
36923;SDS011;22841;50.252;18.688;2023-12-20T11:47:42;54.30;;;29.90;;
36923;SDS011;22841;50.252;18.688;2023-12-20T11:50:11;50.35;;;26.58;;
36923;SDS011;22841;50.252;18.688;2023-12-20T11:52:37;54.20;;;25.90;;
36923;SDS011;22841;50.252;18.688;2023-12-20T11:55:03;45.58;;;23.92;;
36923;SDS011;22841;50.252;18.688;2023-12-20T11:57:30;53.15;;;26.25;;
36923;SDS011;22841;50.252;18.688;2023-12-20T11:59:58;31.42;;;18.08;;
36923;SDS011;22841;50.252;18.688;2023-12-20T12:02:24;35.50;;;19.25;;
36923;SDS011;22841;50.252;18.688;2023-12-20T12:05:15;70.45;;;32.72;;
36923;SDS011;22841;50.252;18.688;2023-12-20T12:08:06;58.28;;;27.42;;
36923;SDS011;22841;50.252;18.688;2023-12-20T12:10:58;46.47;;;21.27;;
36923;SDS011;22841;50.252;18.688;2023-12-20T12:13:24;53.63;;;26.30;;
36923;SDS011;22841;50.252;18.688;2023-12-20T12:15:53;27.27;;;17.77;;
36923;SDS011;22841;50.252;18.688;2023-12-20T12:18:19;34.60;;;18.75;;
36923;SDS011;22841;50.252;18.688;2023-12-20T12:20:45;31.73;;;18.77;;
36923;SDS011;22841;50.252;18.688;2023-12-20T12:23:11;35.70;;;17.30;;
36923;SDS011;22841;50.252;18.688;2023-12-20T12:25:37;32.88;;;17.58;;
36923;SDS011;22841;50.252;18.688;2023-12-20T12:28:04;32.20;;;17.90;;
36923;SDS011;22841;50.252;18.688;2023-12-20T12:30:30;29.52;;;15.95;;
36923;SDS011;22841;50.252;18.688;2023-12-20T12:32:57;34.22;;;19.52;;
36923;SDS011;22841;50.252;18.688;2023-12-20T12:35:25;41.50;;;21.88;;
36923;SDS011;22841;50.252;18.688;2023-12-20T12:37:52;43.20;;;23.08;;
36923;SDS011;22841;50.252;18.688;2023-12-20T12:40:18;43.13;;;22.23;;
36923;SDS011;22841;50.252;18.688;2023-12-20T12:42:45;46.88;;;24.75;;
36923;SDS011;22841;50.252;18.688;2023-12-20T12:45:12;47.92;;;24.40;;
36923;SDS011;22841;50.252;18.688;2023-12-20T12:47:38;45.10;;;24.67;;
36923;SDS011;22841;50.252;18.688;2023-12-20T12:50:05;45.70;;;24.10;;
36923;SDS011;22841;50.252;18.688;2023-12-20T12:52:31;43.55;;;22.95;;
36923;SDS011;22841;50.252;18.688;2023-12-20T12:54:57;44.67;;;24.70;;
36923;SDS011;22841;50.252;18.688;2023-12-20T12:57:23;47.58;;;24.35;;
36923;SDS011;22841;50.252;18.688;2023-12-20T12:59:49;40.55;;;22.42;;
36923;SDS011;22841;50.252;18.688;2023-12-20T13:02:15;50.25;;;25.65;;
36923;SDS011;22841;50.252;18.688;2023-12-20T13:04:42;49.95;;;28.00;;
36923;SDS011;22841;50.252;18.688;2023-12-20T13:07:09;59.80;;;30.83;;
36923;SDS011;22841;50.252;18.688;2023-12-20T13:09:38;84.20;;;34.22;;
36923;SDS011;22841;50.252;18.688;2023-12-20T13:12:05;72.53;;;34.28;;
36923;SDS011;22841;50.252;18.688;2023-12-20T13:14:33;62.75;;;33.22;;
36923;SDS011;22841;50.252;18.688;2023-12-20T13:17:03;67.25;;;36.17;;
36923;SDS011;22841;50.252;18.688;2023-12-20T13:19:29;75.18;;;36.22;;
36923;SDS011;22841;50.252;18.688;2023-12-20T13:21:56;69.72;;;35.67;;
36923;SDS011;22841;50.252;18.688;2023-12-20T13:24:23;65.88;;;35.83;;
36923;SDS011;22841;50.252;18.688;2023-12-20T13:26:49;72.65;;;35.72;;
36923;SDS011;22841;50.252;18.688;2023-12-20T13:29:16;65.10;;;34.60;;
36923;SDS011;22841;50.252;18.688;2023-12-20T13:31:42;68.45;;;34.97;;
36923;SDS011;22841;50.252;18.688;2023-12-20T13:34:08;65.25;;;31.58;;
36923;SDS011;22841;50.252;18.688;2023-12-20T13:36:34;46.28;;;26.25;;
36923;SDS011;22841;50.252;18.688;2023-12-20T13:39:01;35.47;;;20.42;;
36923;SDS011;22841;50.252;18.688;2023-12-20T13:41:30;33.28;;;17.40;;
36923;SDS011;22841;50.252;18.688;2023-12-20T13:43:56;35.13;;;18.73;;
36923;SDS011;22841;50.252;18.688;2023-12-20T13:46:22;72.05;;;27.42;;
36923;SDS011;22841;50.252;18.688;2023-12-20T13:48:49;51.53;;;22.65;;
36923;SDS011;22841;50.252;18.688;2023-12-20T13:51:15;45.92;;;21.52;;
36923;SDS011;22841;50.252;18.688;2023-12-20T13:53:41;56.13;;;26.02;;
36923;SDS011;22841;50.252;18.688;2023-12-20T13:56:07;35.17;;;19.10;;
36923;SDS011;22841;50.252;18.688;2023-12-20T13:58:33;31.73;;;14.13;;
36923;SDS011;22841;50.252;18.688;2023-12-20T14:00:59;22.92;;;12.88;;
36923;SDS011;22841;50.252;18.688;2023-12-20T14:03:26;26.00;;;14.50;;
36923;SDS011;22841;50.252;18.688;2023-12-20T14:05:52;32.28;;;15.10;;
36923;SDS011;22841;50.252;18.688;2023-12-20T14:08:18;29.35;;;14.57;;
36923;SDS011;22841;50.252;18.688;2023-12-20T14:10:44;24.38;;;13.82;;
36923;SDS011;22841;50.252;18.688;2023-12-20T14:13:10;28.27;;;15.07;;
36923;SDS011;22841;50.252;18.688;2023-12-20T14:15:36;27.95;;;14.93;;
36923;SDS011;22841;50.252;18.688;2023-12-20T14:18:05;29.15;;;15.57;;
36923;SDS011;22841;50.252;18.688;2023-12-20T14:20:33;30.77;;;16.33;;
36923;SDS011;22841;50.252;18.688;2023-12-20T14:23:03;27.80;;;17.13;;
36923;SDS011;22841;50.252;18.688;2023-12-20T14:25:29;33.45;;;17.35;;
36923;SDS011;22841;50.252;18.688;2023-12-20T14:27:56;33.97;;;16.02;;
36923;SDS011;22841;50.252;18.688;2023-12-20T14:30:23;30.85;;;16.85;;
36923;SDS011;22841;50.252;18.688;2023-12-20T14:32:49;31.38;;;17.33;;
36923;SDS011;22841;50.252;18.688;2023-12-20T14:35:15;34.08;;;18.70;;
36923;SDS011;22841;50.252;18.688;2023-12-20T14:37:41;33.38;;;18.23;;
36923;SDS011;22841;50.252;18.688;2023-12-20T14:40:08;30.38;;;18.77;;
36923;SDS011;22841;50.252;18.688;2023-12-20T14:42:43;41.00;;;20.80;;
36923;SDS011;22841;50.252;18.688;2023-12-20T14:45:10;31.90;;;17.20;;
36923;SDS011;22841;50.252;18.688;2023-12-20T14:47:36;35.47;;;17.42;;
36923;SDS011;22841;50.252;18.688;2023-12-20T14:50:02;32.85;;;16.35;;
36923;SDS011;22841;50.252;18.688;2023-12-20T14:52:29;27.58;;;16.02;;
36923;SDS011;22841;50.252;18.688;2023-12-20T14:54:56;33.92;;;16.30;;
36923;SDS011;22841;50.252;18.688;2023-12-20T14:57:22;41.40;;;17.45;;
36923;SDS011;22841;50.252;18.688;2023-12-20T14:59:48;33.50;;;17.63;;
36923;SDS011;22841;50.252;18.688;2023-12-20T15:02:14;31.50;;;16.70;;
36923;SDS011;22841;50.252;18.688;2023-12-20T15:04:41;37.63;;;17.13;;
36923;SDS011;22841;50.252;18.688;2023-12-20T15:07:07;32.83;;;18.15;;
36923;SDS011;22841;50.252;18.688;2023-12-20T15:09:33;33.15;;;18.70;;
36923;SDS011;22841;50.252;18.688;2023-12-20T15:11:59;35.90;;;18.77;;
36923;SDS011;22841;50.252;18.688;2023-12-20T15:14:25;37.88;;;19.55;;
36923;SDS011;22841;50.252;18.688;2023-12-20T15:16:51;40.42;;;21.63;;
36923;SDS011;22841;50.252;18.688;2023-12-20T15:19:17;47.58;;;21.05;;
36923;SDS011;22841;50.252;18.688;2023-12-20T15:21:43;38.25;;;21.48;;
36923;SDS011;22841;50.252;18.688;2023-12-20T15:24:09;36.65;;;19.42;;
36923;SDS011;22841;50.252;18.688;2023-12-20T15:26:45;36.38;;;20.30;;
36923;SDS011;22841;50.252;18.688;2023-12-20T15:29:12;37.00;;;20.05;;
36923;SDS011;22841;50.252;18.688;2023-12-20T15:31:42;32.90;;;17.85;;
36923;SDS011;22841;50.252;18.688;2023-12-20T15:34:09;34.05;;;18.88;;
36923;SDS011;22841;50.252;18.688;2023-12-20T15:36:36;36.97;;;19.77;;
36923;SDS011;22841;50.252;18.688;2023-12-20T15:39:04;41.80;;;21.75;;
36923;SDS011;22841;50.252;18.688;2023-12-20T15:41:31;46.35;;;24.05;;
36923;SDS011;22841;50.252;18.688;2023-12-20T15:43:57;54.97;;;26.58;;
36923;SDS011;22841;50.252;18.688;2023-12-20T15:46:23;56.45;;;28.38;;
36923;SDS011;22841;50.252;18.688;2023-12-20T15:48:49;47.88;;;25.65;;
36923;SDS011;22841;50.252;18.688;2023-12-20T15:51:17;41.28;;;22.42;;
36923;SDS011;22841;50.252;18.688;2023-12-20T15:53:45;40.80;;;22.05;;
36923;SDS011;22841;50.252;18.688;2023-12-20T15:56:11;38.75;;;21.67;;
36923;SDS011;22841;50.252;18.688;2023-12-20T15:58:37;43.78;;;22.20;;
36923;SDS011;22841;50.252;18.688;2023-12-20T16:01:03;55.13;;;23.48;;
36923;SDS011;22841;50.252;18.688;2023-12-20T16:03:30;49.63;;;25.92;;
36923;SDS011;22841;50.252;18.688;2023-12-20T16:05:56;51.03;;;27.33;;
36923;SDS011;22841;50.252;18.688;2023-12-20T16:08:24;56.45;;;28.00;;
36923;SDS011;22841;50.252;18.688;2023-12-20T16:10:50;57.63;;;29.55;;
36923;SDS011;22841;50.252;18.688;2023-12-20T16:13:16;56.28;;;27.80;;
36923;SDS011;22841;50.252;18.688;2023-12-20T16:15:42;52.80;;;26.85;;
36923;SDS011;22841;50.252;18.688;2023-12-20T16:18:09;50.70;;;24.95;;
36923;SDS011;22841;50.252;18.688;2023-12-20T16:20:37;47.33;;;23.27;;
36923;SDS011;22841;50.252;18.688;2023-12-20T16:23:03;43.42;;;23.20;;
36923;SDS011;22841;50.252;18.688;2023-12-20T16:25:30;52.45;;;26.42;;
36923;SDS011;22841;50.252;18.688;2023-12-20T16:27:56;50.42;;;25.63;;
36923;SDS011;22841;50.252;18.688;2023-12-20T16:30:22;49.85;;;25.33;;
36923;SDS011;22841;50.252;18.688;2023-12-20T16:32:48;45.42;;;25.77;;
36923;SDS011;22841;50.252;18.688;2023-12-20T16:35:16;51.67;;;25.38;;
36923;SDS011;22841;50.252;18.688;2023-12-20T16:37:43;48.00;;;26.75;;
36923;SDS011;22841;50.252;18.688;2023-12-20T16:40:09;48.85;;;25.90;;
36923;SDS011;22841;50.252;18.688;2023-12-20T16:52:06;43.88;;;23.67;;
36923;SDS011;22841;50.252;18.688;2023-12-20T16:54:32;38.63;;;21.52;;
36923;SDS011;22841;50.252;18.688;2023-12-20T16:56:58;42.72;;;23.20;;
36923;SDS011;22841;50.252;18.688;2023-12-20T16:59:24;44.10;;;21.30;;
36923;SDS011;22841;50.252;18.688;2023-12-20T17:04:38;40.70;;;20.90;;
36923;SDS011;22841;50.252;18.688;2023-12-20T17:09:49;41.80;;;18.33;;
36923;SDS011;22841;50.252;18.688;2023-12-20T17:12:16;34.92;;;17.73;;
36923;SDS011;22841;50.252;18.688;2023-12-20T17:14:42;39.35;;;18.20;;
36923;SDS011;22841;50.252;18.688;2023-12-20T17:17:08;36.88;;;16.88;;
36923;SDS011;22841;50.252;18.688;2023-12-20T17:19:34;36.17;;;16.20;;
36923;SDS011;22841;50.252;18.688;2023-12-20T17:22:00;33.42;;;17.55;;
36923;SDS011;22841;50.252;18.688;2023-12-20T17:24:28;34.97;;;19.35;;
36923;SDS011;22841;50.252;18.688;2023-12-20T17:26:54;35.13;;;17.95;;
36923;SDS011;22841;50.252;18.688;2023-12-20T17:29:20;39.45;;;20.10;;
36923;SDS011;22841;50.252;18.688;2023-12-20T17:31:46;33.65;;;18.80;;
36923;SDS011;22841;50.252;18.688;2023-12-20T17:34:12;32.67;;;17.30;;
36923;SDS011;22841;50.252;18.688;2023-12-20T17:36:39;38.65;;;19.15;;
36923;SDS011;22841;50.252;18.688;2023-12-20T17:39:07;36.17;;;18.83;;
36923;SDS011;22841;50.252;18.688;2023-12-20T17:41:33;34.38;;;18.40;;
36923;SDS011;22841;50.252;18.688;2023-12-20T17:44:01;35.90;;;18.02;;
36923;SDS011;22841;50.252;18.688;2023-12-20T17:46:27;36.15;;;17.48;;
36923;SDS011;22841;50.252;18.688;2023-12-20T17:48:53;30.45;;;16.25;;
36923;SDS011;22841;50.252;18.688;2023-12-20T17:51:21;29.25;;;15.82;;
36923;SDS011;22841;50.252;18.688;2023-12-20T17:53:47;29.48;;;16.08;;
36923;SDS011;22841;50.252;18.688;2023-12-20T17:56:15;34.25;;;16.17;;
36923;SDS011;22841;50.252;18.688;2023-12-20T17:58:42;31.77;;;15.23;;
36923;SDS011;22841;50.252;18.688;2023-12-20T18:01:10;31.85;;;15.18;;
36923;SDS011;22841;50.252;18.688;2023-12-20T18:03:39;37.88;;;15.63;;
36923;SDS011;22841;50.252;18.688;2023-12-20T18:06:05;26.98;;;14.23;;
36923;SDS011;22841;50.252;18.688;2023-12-20T18:08:31;30.67;;;14.57;;
36923;SDS011;22841;50.252;18.688;2023-12-20T18:10:57;23.35;;;13.27;;
36923;SDS011;22841;50.252;18.688;2023-12-20T18:13:23;35.28;;;12.65;;
36923;SDS011;22841;50.252;18.688;2023-12-20T18:15:49;49.20;;;14.52;;
36923;SDS011;22841;50.252;18.688;2023-12-20T18:18:15;26.58;;;13.65;;
36923;SDS011;22841;50.252;18.688;2023-12-20T18:20:41;22.02;;;11.07;;
36923;SDS011;22841;50.252;18.688;2023-12-20T18:23:07;24.02;;;11.93;;
36923;SDS011;22841;50.252;18.688;2023-12-20T18:25:33;27.50;;;12.57;;
36923;SDS011;22841;50.252;18.688;2023-12-20T18:27:59;26.70;;;11.57;;
36923;SDS011;22841;50.252;18.688;2023-12-20T18:30:26;21.30;;;11.18;;
36923;SDS011;22841;50.252;18.688;2023-12-20T18:35:44;21.60;;;10.95;;
36923;SDS011;22841;50.252;18.688;2023-12-20T18:38:10;29.73;;;12.57;;
36923;SDS011;22841;50.252;18.688;2023-12-20T18:40:38;21.20;;;11.45;;
36923;SDS011;22841;50.252;18.688;2023-12-20T18:43:05;24.25;;;10.02;;
36923;SDS011;22841;50.252;18.688;2023-12-20T18:45:31;21.92;;;10.93;;
36923;SDS011;22841;50.252;18.688;2023-12-20T18:47:57;27.63;;;11.13;;
36923;SDS011;22841;50.252;18.688;2023-12-20T18:53:11;23.13;;;11.25;;
36923;SDS011;22841;50.252;18.688;2023-12-20T18:55:37;22.73;;;10.50;;
36923;SDS011;22841;50.252;18.688;2023-12-20T18:58:03;20.02;;;10.52;;